<?xml version="1.0" encoding="UTF-8" standalone="no" ?>
<gpx xmlns="http://www.topografix.com/GPX/1/1" xmlns:xsi="http://www.w3.org/2001/XMLSchema-instance" xsi:schemaLocation="http://www.topografix.com/GPX/1/1 http://www.topografix.com/GPX/1/1/gpx.xsd" version="1.1" creator="VisuGPX - https://www.visugpx.com">
  <metadata>
    <name>Gréoux/Valensole</name>
  </metadata>
  <trk>
    <name><![CDATA[Gréoux-les-Bains /valençole-18132912]]></name>
    <trkseg>
      <trkpt lat="43.75328" lon="5.88819">
        <ele>310</ele>
        <time>2024-01-01T19:38:27Z</time>
      </trkpt>
      <trkpt lat="43.75328" lon="5.88819">
        <ele>310</ele>
        <time>2024-01-01T19:38:27Z</time>
      </trkpt>
      <trkpt lat="43.75316" lon="5.88905">
        <ele>315</ele>
        <time>2024-01-01T19:38:42Z</time>
      </trkpt>
      <trkpt lat="43.75337" lon="5.89">
        <ele>311</ele>
        <time>2024-01-01T19:38:59Z</time>
      </trkpt>
      <trkpt lat="43.75402" lon="5.88988">
        <ele>311</ele>
        <time>2024-01-01T19:39:14Z</time>
      </trkpt>
      <trkpt lat="43.75384" lon="5.88706">
        <ele>311</ele>
        <time>2024-01-01T19:40:02Z</time>
      </trkpt>
      <trkpt lat="43.75344" lon="5.88472">
        <ele>305</ele>
        <time>2024-01-01T19:40:42Z</time>
      </trkpt>
      <trkpt lat="43.75304" lon="5.88237">
        <ele>299</ele>
        <time>2024-01-01T19:41:23Z</time>
      </trkpt>
      <trkpt lat="43.75364" lon="5.88188">
        <ele>301</ele>
        <time>2024-01-01T19:41:39Z</time>
      </trkpt>
      <trkpt lat="43.75444" lon="5.88195">
        <ele>307</ele>
        <time>2024-01-01T19:41:58Z</time>
      </trkpt>
      <trkpt lat="43.75519" lon="5.88171">
        <ele>315</ele>
        <time>2024-01-01T19:42:16Z</time>
      </trkpt>
      <trkpt lat="43.75602" lon="5.88178">
        <ele>324</ele>
        <time>2024-01-01T19:42:35Z</time>
      </trkpt>
      <trkpt lat="43.75723" lon="5.88221">
        <ele>336</ele>
        <time>2024-01-01T19:43:04Z</time>
      </trkpt>
      <trkpt lat="43.75774" lon="5.88232">
        <ele>343</ele>
        <time>2024-01-01T19:43:17Z</time>
      </trkpt>
      <trkpt lat="43.75814" lon="5.88213">
        <ele>349</ele>
        <time>2024-01-01T19:43:26Z</time>
      </trkpt>
      <trkpt lat="43.75874" lon="5.88221">
        <ele>356</ele>
        <time>2024-01-01T19:43:40Z</time>
      </trkpt>
      <trkpt lat="43.75869" lon="5.88297">
        <ele>361</ele>
        <time>2024-01-01T19:43:53Z</time>
      </trkpt>
      <trkpt lat="43.75852" lon="5.88361">
        <ele>362</ele>
        <time>2024-01-01T19:44:05Z</time>
      </trkpt>
      <trkpt lat="43.75869" lon="5.88366">
        <ele>364</ele>
        <time>2024-01-01T19:44:09Z</time>
      </trkpt>
      <trkpt lat="43.75876" lon="5.8835">
        <ele>365</ele>
        <time>2024-01-01T19:44:12Z</time>
      </trkpt>
      <trkpt lat="43.75895" lon="5.88334">
        <ele>367</ele>
        <time>2024-01-01T19:44:17Z</time>
      </trkpt>
      <trkpt lat="43.75901" lon="5.88352">
        <ele>368</ele>
        <time>2024-01-01T19:44:21Z</time>
      </trkpt>
      <trkpt lat="43.75906" lon="5.8837">
        <ele>368</ele>
        <time>2024-01-01T19:44:24Z</time>
      </trkpt>
      <trkpt lat="43.75922" lon="5.88369">
        <ele>371</ele>
        <time>2024-01-01T19:44:28Z</time>
      </trkpt>
      <trkpt lat="43.75941" lon="5.88402">
        <ele>374</ele>
        <time>2024-01-01T19:44:35Z</time>
      </trkpt>
      <trkpt lat="43.75979" lon="5.88439">
        <ele>376</ele>
        <time>2024-01-01T19:44:46Z</time>
      </trkpt>
      <trkpt lat="43.75993" lon="5.88433">
        <ele>380</ele>
        <time>2024-01-01T19:44:49Z</time>
      </trkpt>
      <trkpt lat="43.76008" lon="5.88413">
        <ele>383</ele>
        <time>2024-01-01T19:44:54Z</time>
      </trkpt>
      <trkpt lat="43.76041" lon="5.88383">
        <ele>381</ele>
        <time>2024-01-01T19:45:03Z</time>
      </trkpt>
      <trkpt lat="43.7604" lon="5.8836">
        <ele>382</ele>
        <time>2024-01-01T19:45:07Z</time>
      </trkpt>
      <trkpt lat="43.76032" lon="5.8833">
        <ele>382</ele>
        <time>2024-01-01T19:45:12Z</time>
      </trkpt>
      <trkpt lat="43.76054" lon="5.88346">
        <ele>381</ele>
        <time>2024-01-01T19:45:18Z</time>
      </trkpt>
      <trkpt lat="43.76084" lon="5.88364">
        <ele>378</ele>
        <time>2024-01-01T19:45:26Z</time>
      </trkpt>
      <trkpt lat="43.76104" lon="5.88361">
        <ele>378</ele>
        <time>2024-01-01T19:45:30Z</time>
      </trkpt>
      <trkpt lat="43.76104" lon="5.88383">
        <ele>377</ele>
        <time>2024-01-01T19:45:34Z</time>
      </trkpt>
      <trkpt lat="43.76176" lon="5.88379">
        <ele>375</ele>
        <time>2024-01-01T19:45:51Z</time>
      </trkpt>
      <trkpt lat="43.76255" lon="5.88318">
        <ele>379</ele>
        <time>2024-01-01T19:46:12Z</time>
      </trkpt>
      <trkpt lat="43.7638" lon="5.8828">
        <ele>379</ele>
        <time>2024-01-01T19:46:42Z</time>
      </trkpt>
      <trkpt lat="43.76458" lon="5.88269">
        <ele>384</ele>
        <time>2024-01-01T19:47:00Z</time>
      </trkpt>
      <trkpt lat="43.76536" lon="5.88317">
        <ele>378</ele>
        <time>2024-01-01T19:47:20Z</time>
      </trkpt>
      <trkpt lat="43.76631" lon="5.8831">
        <ele>381</ele>
        <time>2024-01-01T19:47:42Z</time>
      </trkpt>
      <trkpt lat="43.76686" lon="5.88274">
        <ele>383</ele>
        <time>2024-01-01T19:47:57Z</time>
      </trkpt>
      <trkpt lat="43.76731" lon="5.88236">
        <ele>384</ele>
        <time>2024-01-01T19:48:09Z</time>
      </trkpt>
      <trkpt lat="43.76827" lon="5.88236">
        <ele>389</ele>
        <time>2024-01-01T19:48:31Z</time>
      </trkpt>
      <trkpt lat="43.76897" lon="5.88284">
        <ele>394</ele>
        <time>2024-01-01T19:48:50Z</time>
      </trkpt>
      <trkpt lat="43.77002" lon="5.88328">
        <ele>394</ele>
        <time>2024-01-01T19:49:15Z</time>
      </trkpt>
      <trkpt lat="43.77123" lon="5.8827">
        <ele>403</ele>
        <time>2024-01-01T19:49:45Z</time>
      </trkpt>
      <trkpt lat="43.77174" lon="5.88278">
        <ele>408</ele>
        <time>2024-01-01T19:49:57Z</time>
      </trkpt>
      <trkpt lat="43.77236" lon="5.88313">
        <ele>412</ele>
        <time>2024-01-01T19:50:13Z</time>
      </trkpt>
      <trkpt lat="43.77357" lon="5.88301">
        <ele>423</ele>
        <time>2024-01-01T19:50:41Z</time>
      </trkpt>
      <trkpt lat="43.77409" lon="5.88346">
        <ele>425</ele>
        <time>2024-01-01T19:50:55Z</time>
      </trkpt>
      <trkpt lat="43.77469" lon="5.88374">
        <ele>433</ele>
        <time>2024-01-01T19:51:10Z</time>
      </trkpt>
      <trkpt lat="43.77542" lon="5.88384">
        <ele>438</ele>
        <time>2024-01-01T19:51:27Z</time>
      </trkpt>
      <trkpt lat="43.77588" lon="5.88435">
        <ele>439</ele>
        <time>2024-01-01T19:51:41Z</time>
      </trkpt>
      <trkpt lat="43.77712" lon="5.88507">
        <ele>448</ele>
        <time>2024-01-01T19:52:13Z</time>
      </trkpt>
      <trkpt lat="43.77768" lon="5.8867">
        <ele>460</ele>
        <time>2024-01-01T19:52:43Z</time>
      </trkpt>
      <trkpt lat="43.7782" lon="5.88702">
        <ele>471</ele>
        <time>2024-01-01T19:52:56Z</time>
      </trkpt>
      <trkpt lat="43.77859" lon="5.88683">
        <ele>473</ele>
        <time>2024-01-01T19:53:06Z</time>
      </trkpt>
      <trkpt lat="43.77891" lon="5.88649">
        <ele>476</ele>
        <time>2024-01-01T19:53:15Z</time>
      </trkpt>
      <trkpt lat="43.77935" lon="5.88628">
        <ele>482</ele>
        <time>2024-01-01T19:53:26Z</time>
      </trkpt>
      <trkpt lat="43.77972" lon="5.88571">
        <ele>486</ele>
        <time>2024-01-01T19:53:39Z</time>
      </trkpt>
      <trkpt lat="43.78017" lon="5.88545">
        <ele>490</ele>
        <time>2024-01-01T19:53:50Z</time>
      </trkpt>
      <trkpt lat="43.78108" lon="5.88495">
        <ele>495</ele>
        <time>2024-01-01T19:54:13Z</time>
      </trkpt>
      <trkpt lat="43.78209" lon="5.88482">
        <ele>500</ele>
        <time>2024-01-01T19:54:37Z</time>
      </trkpt>
      <trkpt lat="43.78235" lon="5.88437">
        <ele>502</ele>
        <time>2024-01-01T19:54:47Z</time>
      </trkpt>
      <trkpt lat="43.78286" lon="5.88399">
        <ele>504</ele>
        <time>2024-01-01T19:55:00Z</time>
      </trkpt>
      <trkpt lat="43.78389" lon="5.8835">
        <ele>506</ele>
        <time>2024-01-01T19:55:26Z</time>
      </trkpt>
      <trkpt lat="43.78412" lon="5.88458">
        <ele>505</ele>
        <time>2024-01-01T19:55:45Z</time>
      </trkpt>
      <trkpt lat="43.78409" lon="5.88611">
        <ele>503</ele>
        <time>2024-01-01T19:56:11Z</time>
      </trkpt>
      <trkpt lat="43.78412" lon="5.88715">
        <ele>505</ele>
        <time>2024-01-01T19:56:28Z</time>
      </trkpt>
      <trkpt lat="43.78422" lon="5.88979">
        <ele>506</ele>
        <time>2024-01-01T19:57:13Z</time>
      </trkpt>
      <trkpt lat="43.78409" lon="5.89047">
        <ele>504</ele>
        <time>2024-01-01T19:57:24Z</time>
      </trkpt>
      <trkpt lat="43.78429" lon="5.89125">
        <ele>502</ele>
        <time>2024-01-01T19:57:38Z</time>
      </trkpt>
      <trkpt lat="43.78467" lon="5.89159">
        <ele>504</ele>
        <time>2024-01-01T19:57:49Z</time>
      </trkpt>
      <trkpt lat="43.78583" lon="5.89291">
        <ele>507</ele>
        <time>2024-01-01T19:58:24Z</time>
      </trkpt>
      <trkpt lat="43.78591" lon="5.89395">
        <ele>509</ele>
        <time>2024-01-01T19:58:42Z</time>
      </trkpt>
      <trkpt lat="43.78669" lon="5.89509">
        <ele>509</ele>
        <time>2024-01-01T19:59:08Z</time>
      </trkpt>
      <trkpt lat="43.78772" lon="5.89584">
        <ele>508</ele>
        <time>2024-01-01T19:59:35Z</time>
      </trkpt>
      <trkpt lat="43.78869" lon="5.89654">
        <ele>507</ele>
        <time>2024-01-01T20:00:01Z</time>
      </trkpt>
      <trkpt lat="43.78907" lon="5.89775">
        <ele>512</ele>
        <time>2024-01-01T20:00:23Z</time>
      </trkpt>
      <trkpt lat="43.78979" lon="5.89935">
        <ele>513</ele>
        <time>2024-01-01T20:00:55Z</time>
      </trkpt>
      <trkpt lat="43.79086" lon="5.90107">
        <ele>515</ele>
        <time>2024-01-01T20:01:33Z</time>
      </trkpt>
      <trkpt lat="43.79486" lon="5.90176">
        <ele>517</ele>
        <time>2024-01-01T20:03:07Z</time>
      </trkpt>
      <trkpt lat="43.79647" lon="5.90378">
        <ele>516</ele>
        <time>2024-01-01T20:03:58Z</time>
      </trkpt>
      <trkpt lat="43.79858" lon="5.90477">
        <ele>524</ele>
        <time>2024-01-01T20:04:50Z</time>
      </trkpt>
      <trkpt lat="43.8013" lon="5.90901">
        <ele>525</ele>
        <time>2024-01-01T20:06:26Z</time>
      </trkpt>
      <trkpt lat="43.80152" lon="5.91017">
        <ele>526</ele>
        <time>2024-01-01T20:06:46Z</time>
      </trkpt>
      <trkpt lat="43.80301" lon="5.91129">
        <ele>530</ele>
        <time>2024-01-01T20:07:26Z</time>
      </trkpt>
      <trkpt lat="43.80582" lon="5.91691">
        <ele>536</ele>
        <time>2024-01-01T20:09:21Z</time>
      </trkpt>
      <trkpt lat="43.80606" lon="5.91723">
        <ele>537</ele>
        <time>2024-01-01T20:09:29Z</time>
      </trkpt>
      <trkpt lat="43.80657" lon="5.91736">
        <ele>539</ele>
        <time>2024-01-01T20:09:41Z</time>
      </trkpt>
      <trkpt lat="43.80719" lon="5.91766">
        <ele>539</ele>
        <time>2024-01-01T20:09:56Z</time>
      </trkpt>
      <trkpt lat="43.80663" lon="5.91882">
        <ele>537</ele>
        <time>2024-01-01T20:10:19Z</time>
      </trkpt>
      <trkpt lat="43.80589" lon="5.91878">
        <ele>535</ele>
        <time>2024-01-01T20:10:37Z</time>
      </trkpt>
      <trkpt lat="43.8044" lon="5.9203">
        <ele>522</ele>
        <time>2024-01-01T20:11:20Z</time>
      </trkpt>
      <trkpt lat="43.80486" lon="5.92097">
        <ele>527</ele>
        <time>2024-01-01T20:11:36Z</time>
      </trkpt>
      <trkpt lat="43.80338" lon="5.92335">
        <ele>519</ele>
        <time>2024-01-01T20:12:29Z</time>
      </trkpt>
      <trkpt lat="43.80333" lon="5.92472">
        <ele>516</ele>
        <time>2024-01-01T20:12:52Z</time>
      </trkpt>
      <trkpt lat="43.80245" lon="5.92833">
        <ele>454</ele>
        <time>2024-01-01T20:13:56Z</time>
      </trkpt>
      <trkpt lat="43.8027" lon="5.92957">
        <ele>451</ele>
        <time>2024-01-01T20:14:18Z</time>
      </trkpt>
      <trkpt lat="43.80314" lon="5.93006">
        <ele>453</ele>
        <time>2024-01-01T20:14:31Z</time>
      </trkpt>
      <trkpt lat="43.80318" lon="5.9306">
        <ele>448</ele>
        <time>2024-01-01T20:14:40Z</time>
      </trkpt>
      <trkpt lat="43.80621" lon="5.93408">
        <ele>472</ele>
        <time>2024-01-01T20:16:12Z</time>
      </trkpt>
      <trkpt lat="43.80796" lon="5.93472">
        <ele>472</ele>
        <time>2024-01-01T20:16:54Z</time>
      </trkpt>
      <trkpt lat="43.81007" lon="5.93727">
        <ele>480</ele>
        <time>2024-01-01T20:17:59Z</time>
      </trkpt>
      <trkpt lat="43.81267" lon="5.93648">
        <ele>482</ele>
        <time>2024-01-01T20:19:02Z</time>
      </trkpt>
      <trkpt lat="43.81307" lon="5.93558">
        <ele>479</ele>
        <time>2024-01-01T20:19:19Z</time>
      </trkpt>
      <trkpt lat="43.81406" lon="5.93558">
        <ele>484</ele>
        <time>2024-01-01T20:19:43Z</time>
      </trkpt>
      <trkpt lat="43.81456" lon="5.93633">
        <ele>486</ele>
        <time>2024-01-01T20:20:00Z</time>
      </trkpt>
      <trkpt lat="43.81479" lon="5.93613">
        <ele>489</ele>
        <time>2024-01-01T20:20:06Z</time>
      </trkpt>
      <trkpt lat="43.81473" lon="5.93536">
        <ele>496</ele>
        <time>2024-01-01T20:20:19Z</time>
      </trkpt>
      <trkpt lat="43.81443" lon="5.93472">
        <ele>502</ele>
        <time>2024-01-01T20:20:32Z</time>
      </trkpt>
      <trkpt lat="43.81499" lon="5.93454">
        <ele>515</ele>
        <time>2024-01-01T20:20:45Z</time>
      </trkpt>
      <trkpt lat="43.81511" lon="5.93481">
        <ele>511</ele>
        <time>2024-01-01T20:20:51Z</time>
      </trkpt>
      <trkpt lat="43.81588" lon="5.93486">
        <ele>525</ele>
        <time>2024-01-01T20:21:09Z</time>
      </trkpt>
      <trkpt lat="43.81595" lon="5.93457">
        <ele>531</ele>
        <time>2024-01-01T20:21:14Z</time>
      </trkpt>
      <trkpt lat="43.81648" lon="5.9343">
        <ele>538</ele>
        <time>2024-01-01T20:21:27Z</time>
      </trkpt>
      <trkpt lat="43.81699" lon="5.93392">
        <ele>545</ele>
        <time>2024-01-01T20:21:41Z</time>
      </trkpt>
      <trkpt lat="43.81731" lon="5.93342">
        <ele>550</ele>
        <time>2024-01-01T20:21:52Z</time>
      </trkpt>
      <trkpt lat="43.81749" lon="5.93297">
        <ele>550</ele>
        <time>2024-01-01T20:22:01Z</time>
      </trkpt>
      <trkpt lat="43.82023" lon="5.93363">
        <ele>550</ele>
        <time>2024-01-01T20:23:06Z</time>
      </trkpt>
      <trkpt lat="43.82218" lon="5.93198">
        <ele>557</ele>
        <time>2024-01-01T20:23:59Z</time>
      </trkpt>
      <trkpt lat="43.82346" lon="5.93435">
        <ele>559</ele>
        <time>2024-01-01T20:24:49Z</time>
      </trkpt>
      <trkpt lat="43.8257" lon="5.93712">
        <ele>557</ele>
        <time>2024-01-01T20:25:59Z</time>
      </trkpt>
      <trkpt lat="43.82636" lon="5.93918">
        <ele>559</ele>
        <time>2024-01-01T20:26:37Z</time>
      </trkpt>
      <trkpt lat="43.8275" lon="5.93807">
        <ele>563</ele>
        <time>2024-01-01T20:27:09Z</time>
      </trkpt>
      <trkpt lat="43.82889" lon="5.93747">
        <ele>565</ele>
        <time>2024-01-01T20:27:43Z</time>
      </trkpt>
      <trkpt lat="43.82916" lon="5.93882">
        <ele>567</ele>
        <time>2024-01-01T20:28:07Z</time>
      </trkpt>
      <trkpt lat="43.83101" lon="5.93867">
        <ele>567</ele>
        <time>2024-01-01T20:28:50Z</time>
      </trkpt>
      <trkpt lat="43.83244" lon="5.94581">
        <ele>572</ele>
        <time>2024-01-01T20:30:55Z</time>
      </trkpt>
      <trkpt lat="43.83394" lon="5.94451">
        <ele>572</ele>
        <time>2024-01-01T20:31:36Z</time>
      </trkpt>
      <trkpt lat="43.83567" lon="5.94815">
        <ele>574</ele>
        <time>2024-01-01T20:32:50Z</time>
      </trkpt>
      <trkpt lat="43.83642" lon="5.95124">
        <ele>576</ele>
        <time>2024-01-01T20:33:45Z</time>
      </trkpt>
      <trkpt lat="43.83803" lon="5.95399">
        <ele>579</ele>
        <time>2024-01-01T20:34:44Z</time>
      </trkpt>
      <trkpt lat="43.83781" lon="5.95579">
        <ele>580</ele>
        <time>2024-01-01T20:35:15Z</time>
      </trkpt>
      <trkpt lat="43.8366" lon="5.95764">
        <ele>580</ele>
        <time>2024-01-01T20:35:57Z</time>
      </trkpt>
      <trkpt lat="43.83849" lon="5.96154">
        <ele>583</ele>
        <time>2024-01-01T20:37:16Z</time>
      </trkpt>
      <trkpt lat="43.84165" lon="5.96498">
        <ele>587</ele>
        <time>2024-01-01T20:38:50Z</time>
      </trkpt>
      <trkpt lat="43.84425" lon="5.96991">
        <ele>595</ele>
        <time>2024-01-01T20:40:33Z</time>
      </trkpt>
      <trkpt lat="43.8431" lon="5.97433">
        <ele>586</ele>
        <time>2024-01-01T20:41:52Z</time>
      </trkpt>
      <trkpt lat="43.84267" lon="5.97759">
        <ele>592</ele>
        <time>2024-01-01T20:42:48Z</time>
      </trkpt>
      <trkpt lat="43.84186" lon="5.97854">
        <ele>590</ele>
        <time>2024-01-01T20:43:13Z</time>
      </trkpt>
    </trkseg>
  </trk>
</gpx>